<?xml version="1.0" encoding="UTF-8" standalone="no" ?>
<gpx xmlns="http://www.topografix.com/GPX/1/1" xmlns:xsi="http://www.w3.org/2001/XMLSchema-instance" xsi:schemaLocation="http://www.topografix.com/GPX/1/1 http://www.topografix.com/GPX/1/1/gpx.xsd" version="1.1" creator="VisuGPX - https://www.visugpx.com">
  <metadata>
    <name>Jour 7</name>
    <desc><![CDATA[

]]></desc>
  </metadata>
  <trk>
    <name><![CDATA[Jour 7]]></name>
    <trkseg>
      <trkpt lat="47.9824" lon="7.01817">
        <ele>699.40002441406</ele>
        <time>2020-08-14T07:51:19.000Z</time>
      </trkpt>
      <trkpt lat="47.9824" lon="7.01817">
        <ele>699.40002441406</ele>
        <time>2020-08-14T07:51:19.000Z</time>
      </trkpt>
      <trkpt lat="47.98207" lon="7.01841">
        <ele>693</ele>
        <time>2020-08-14T07:53:17.113Z</time>
      </trkpt>
      <trkpt lat="47.9819" lon="7.01808">
        <ele>691</ele>
        <time>2020-08-14T07:54:17.615Z</time>
      </trkpt>
      <trkpt lat="47.98185" lon="7.01733">
        <ele>691</ele>
        <time>2020-08-14T07:55:17.117Z</time>
      </trkpt>
      <trkpt lat="47.98196" lon="7.01666">
        <ele>697</ele>
        <time>2020-08-14T07:57:18.000Z</time>
      </trkpt>
      <trkpt lat="47.98179" lon="7.0166">
        <ele>697.44422317868</ele>
        <time>2020-08-14T07:57:42.000Z</time>
      </trkpt>
      <trkpt lat="47.98187" lon="7.01653">
        <ele>697.9422305119</ele>
        <time>2020-08-14T07:57:47.000Z</time>
      </trkpt>
      <trkpt lat="47.98194" lon="7.01643">
        <ele>700.03707389865</ele>
        <time>2020-08-14T07:57:58.000Z</time>
      </trkpt>
      <trkpt lat="47.98194" lon="7.01563">
        <ele>707.95552227134</ele>
        <time>2020-08-14T07:59:47.133Z</time>
      </trkpt>
      <trkpt lat="47.98196" lon="7.01488">
        <ele>724</ele>
        <time>2020-08-14T08:01:47.055Z</time>
      </trkpt>
      <trkpt lat="47.98164" lon="7.01462">
        <ele>727</ele>
        <time>2020-08-14T08:03:35.000Z</time>
      </trkpt>
      <trkpt lat="47.98161" lon="7.01466">
        <ele>727.09400064</ele>
        <time>2020-08-14T08:03:48.000Z</time>
      </trkpt>
      <trkpt lat="47.98152" lon="7.01461">
        <ele>728.09400064</ele>
        <time>2020-08-14T08:03:53.000Z</time>
      </trkpt>
      <trkpt lat="47.98149" lon="7.01459">
        <ele>729.44610781885</ele>
        <time>2020-08-14T08:04:02.000Z</time>
      </trkpt>
      <trkpt lat="47.98147" lon="7.01403">
        <ele>742</ele>
        <time>2020-08-14T08:05:47.571Z</time>
      </trkpt>
      <trkpt lat="47.98167" lon="7.01331">
        <ele>744</ele>
        <time>2020-08-14T08:07:17.404Z</time>
      </trkpt>
      <trkpt lat="47.98193" lon="7.01343">
        <ele>745</ele>
        <time>2020-08-14T08:09:17.011Z</time>
      </trkpt>
      <trkpt lat="47.98154" lon="7.01314">
        <ele>766.60200192</ele>
        <time>2020-08-14T08:17:20.540Z</time>
      </trkpt>
      <trkpt lat="47.9818" lon="7.01284">
        <ele>772.18100096</ele>
        <time>2020-08-14T08:18:19.340Z</time>
      </trkpt>
      <trkpt lat="47.98202" lon="7.01221">
        <ele>782.40888915322</ele>
        <time>2020-08-14T08:20:19.654Z</time>
      </trkpt>
      <trkpt lat="47.98226" lon="7.01191">
        <ele>785</ele>
        <time>2020-08-14T08:25:20.380Z</time>
      </trkpt>
      <trkpt lat="47.98165" lon="7.01221">
        <ele>799.37730048</ele>
        <time>2020-08-14T08:29:21.303Z</time>
      </trkpt>
      <trkpt lat="47.98155" lon="7.01207">
        <ele>804.8</ele>
      </trkpt>
      <trkpt lat="47.98169" lon="7.01209">
        <ele>755.5</ele>
      </trkpt>
      <trkpt lat="47.9816" lon="7.01202">
        <ele>806.1</ele>
      </trkpt>
      <trkpt lat="47.98173" lon="7.01197">
        <ele>794</ele>
      </trkpt>
      <trkpt lat="47.98201" lon="7.01176">
        <ele>811.94700032</ele>
        <time>2020-08-14T08:34:17.000Z</time>
      </trkpt>
      <trkpt lat="47.98181" lon="7.01159">
        <ele>819.8</ele>
      </trkpt>
      <trkpt lat="47.98128" lon="7.01209">
        <ele>809</ele>
      </trkpt>
      <trkpt lat="47.98135" lon="7.0117">
        <ele>849.04360064</ele>
        <time>2020-08-14T08:41:17.966Z</time>
      </trkpt>
      <trkpt lat="47.98153" lon="7.01123">
        <ele>856.09290808165</ele>
        <time>2020-08-14T08:42:53.000Z</time>
      </trkpt>
      <trkpt lat="47.98128" lon="7.01106">
        <ele>824.9</ele>
      </trkpt>
      <trkpt lat="47.98162" lon="7.01056">
        <ele>827.1</ele>
      </trkpt>
      <trkpt lat="47.98122" lon="7.01078">
        <ele>877</ele>
        <time>2020-08-14T08:48:47.911Z</time>
      </trkpt>
      <trkpt lat="47.98141" lon="7.01024">
        <ele>865.9</ele>
      </trkpt>
      <trkpt lat="47.9812" lon="7.00995">
        <ele>886</ele>
        <time>2020-08-14T08:54:47.463Z</time>
      </trkpt>
      <trkpt lat="47.98095" lon="7.00944">
        <ele>863.7</ele>
      </trkpt>
      <trkpt lat="47.98061" lon="7.01021">
        <ele>913.0946293119</ele>
        <time>2020-08-14T08:58:48.594Z</time>
      </trkpt>
      <trkpt lat="47.98059" lon="7.00979">
        <ele>919.9475008</ele>
        <time>2020-08-14T08:59:47.004Z</time>
      </trkpt>
      <trkpt lat="47.9803" lon="7.00981">
        <ele>924.06969984</ele>
        <time>2020-08-14T09:00:48.226Z</time>
      </trkpt>
      <trkpt lat="47.97978" lon="7.00939">
        <ele>915.1</ele>
      </trkpt>
      <trkpt lat="47.97942" lon="7.00888">
        <ele>944.99443303644</ele>
        <time>2020-08-14T09:04:47.475Z</time>
      </trkpt>
      <trkpt lat="47.97886" lon="7.00853">
        <ele>950.07120128</ele>
        <time>2020-08-14T09:05:47.886Z</time>
      </trkpt>
      <trkpt lat="47.9787" lon="7.00811">
        <ele>957.05660032</ele>
        <time>2020-08-14T09:06:48.096Z</time>
      </trkpt>
      <trkpt lat="47.97814" lon="7.00709">
        <ele>967</ele>
        <time>2020-08-14T09:08:47.222Z</time>
      </trkpt>
      <trkpt lat="47.97783" lon="7.00641">
        <ele>976</ele>
        <time>2020-08-14T09:10:47.245Z</time>
      </trkpt>
      <trkpt lat="47.97754" lon="7.00587">
        <ele>980.0224</ele>
        <time>2020-08-14T09:11:47.754Z</time>
      </trkpt>
      <trkpt lat="47.9772" lon="7.0057">
        <ele>980</ele>
        <time>2020-08-14T09:12:47.366Z</time>
      </trkpt>
      <trkpt lat="47.9773" lon="7.0053">
        <ele>980</ele>
        <time>2020-08-14T09:14:47.472Z</time>
      </trkpt>
      <trkpt lat="47.97696" lon="7.00447">
        <ele>985</ele>
        <time>2020-08-14T09:18:47.516Z</time>
      </trkpt>
      <trkpt lat="47.97729" lon="7.00401">
        <ele>972.4</ele>
      </trkpt>
      <trkpt lat="47.97753" lon="7.00378">
        <ele>993</ele>
        <time>2020-08-14T09:20:48.435Z</time>
      </trkpt>
      <trkpt lat="47.97777" lon="7.0033">
        <ele>996</ele>
        <time>2020-08-14T09:23:47.356Z</time>
      </trkpt>
      <trkpt lat="47.97814" lon="7.00304">
        <ele>1003</ele>
        <time>2020-08-14T09:24:47.871Z</time>
      </trkpt>
      <trkpt lat="47.9785" lon="7.00274">
        <ele>1012.0588104117</ele>
        <time>2020-08-14T09:26:47.892Z</time>
      </trkpt>
      <trkpt lat="47.97805" lon="7.00191">
        <ele>1028</ele>
        <time>2020-08-14T09:29:47.808Z</time>
      </trkpt>
      <trkpt lat="47.97746" lon="7.00122">
        <ele>1008</ele>
      </trkpt>
      <trkpt lat="47.97767" lon="7.00096">
        <ele>1010.2</ele>
      </trkpt>
      <trkpt lat="47.97835" lon="7.00145">
        <ele>1016.98119936</ele>
        <time>2020-08-14T09:42:47.624Z</time>
      </trkpt>
      <trkpt lat="47.97903" lon="7.00237">
        <ele>994.5</ele>
      </trkpt>
      <trkpt lat="47.97918" lon="7.00203">
        <ele>997.2</ele>
      </trkpt>
      <trkpt lat="47.97919" lon="7.00186">
        <ele>998.3</ele>
      </trkpt>
      <trkpt lat="47.97884" lon="7.00132">
        <ele>1023</ele>
        <time>2020-08-14T10:04:47.486Z</time>
      </trkpt>
      <trkpt lat="47.97889" lon="7.00109">
        <ele>1006.9</ele>
      </trkpt>
      <trkpt lat="47.97887" lon="7.00084">
        <ele>1007.7</ele>
      </trkpt>
      <trkpt lat="47.97897" lon="7.00069">
        <ele>1015.6</ele>
      </trkpt>
      <trkpt lat="47.97919" lon="7.00061">
        <ele>1015.3</ele>
      </trkpt>
      <trkpt lat="47.97934" lon="7.00097">
        <ele>1007.4</ele>
      </trkpt>
      <trkpt lat="47.97916" lon="7.00114">
        <ele>996.7</ele>
      </trkpt>
      <trkpt lat="47.97901" lon="7.00115">
        <ele>997.4</ele>
      </trkpt>
      <trkpt lat="47.97913" lon="7.00131">
        <ele>995.3</ele>
      </trkpt>
      <trkpt lat="47.97923" lon="7.00119">
        <ele>996.6</ele>
      </trkpt>
      <trkpt lat="47.97957" lon="7.00159">
        <ele>1005.1</ele>
      </trkpt>
      <trkpt lat="47.97994" lon="7.00148">
        <ele>1005.8</ele>
      </trkpt>
      <trkpt lat="47.98036" lon="7.00095">
        <ele>1042.85060096</ele>
        <time>2020-08-14T10:46:47.036Z</time>
      </trkpt>
      <trkpt lat="47.9804" lon="7.0014">
        <ele>1047.9616</ele>
        <time>2020-08-14T10:47:48.146Z</time>
      </trkpt>
      <trkpt lat="47.98105" lon="7.00132">
        <ele>1014.9</ele>
      </trkpt>
      <trkpt lat="47.98131" lon="7.00194">
        <ele>1055.101164675</ele>
        <time>2020-08-14T10:48:49.051Z</time>
      </trkpt>
      <trkpt lat="47.98174" lon="7.0023">
        <ele>1060</ele>
        <time>2020-08-14T10:49:47.463Z</time>
      </trkpt>
      <trkpt lat="47.98202" lon="7.0027">
        <ele>1067.01420032</ele>
        <time>2020-08-14T10:50:48.672Z</time>
      </trkpt>
      <trkpt lat="47.98222" lon="7.00298">
        <ele>1067</ele>
        <time>2020-08-14T10:51:47.102Z</time>
      </trkpt>
      <trkpt lat="47.98255" lon="7.00313">
        <ele>1072.8984</ele>
        <time>2020-08-14T10:52:47.514Z</time>
      </trkpt>
      <trkpt lat="47.98332" lon="7.00397">
        <ele>1089.9438838407</ele>
        <time>2020-08-14T10:55:18.252Z</time>
      </trkpt>
      <trkpt lat="47.98363" lon="7.00359">
        <ele>1096.91449984</ele>
        <time>2020-08-14T10:56:17.675Z</time>
      </trkpt>
      <trkpt lat="47.98407" lon="7.00359">
        <ele>1100</ele>
        <time>2020-08-14T10:57:18.383Z</time>
      </trkpt>
      <trkpt lat="47.98473" lon="7.00307">
        <ele>1111.0328694821</ele>
        <time>2020-08-14T10:59:18.695Z</time>
      </trkpt>
      <trkpt lat="47.98509" lon="7.00284">
        <ele>1118.8729858065</ele>
        <time>2020-08-14T11:00:17.900Z</time>
      </trkpt>
      <trkpt lat="47.98573" lon="7.0029">
        <ele>1125.22790016</ele>
        <time>2020-08-14T11:01:20.809Z</time>
      </trkpt>
      <trkpt lat="47.98612" lon="7.00306">
        <ele>1127</ele>
        <time>2020-08-14T11:02:17.217Z</time>
      </trkpt>
      <trkpt lat="47.98641" lon="7.00313">
        <ele>1134.70279936</ele>
        <time>2020-08-14T11:06:17.044Z</time>
      </trkpt>
      <trkpt lat="47.9862" lon="7.00282">
        <ele>1143.95219968</ele>
        <time>2020-08-14T11:07:18.052Z</time>
      </trkpt>
      <trkpt lat="47.98608" lon="7.00193">
        <ele>1134.6</ele>
      </trkpt>
      <trkpt lat="47.98545" lon="7.00178">
        <ele>1130.3</ele>
      </trkpt>
      <trkpt lat="47.98504" lon="7.00167">
        <ele>1137.8</ele>
      </trkpt>
      <trkpt lat="47.98453" lon="7.00139">
        <ele>1175.85910016</ele>
        <time>2020-08-14T11:13:17.121Z</time>
      </trkpt>
      <trkpt lat="47.98422" lon="7.00063">
        <ele>1183.7717914397</ele>
        <time>2020-08-14T11:14:17.637Z</time>
      </trkpt>
      <trkpt lat="47.984" lon="7.00039">
        <ele>1186</ele>
        <time>2020-08-14T11:15:17.150Z</time>
      </trkpt>
      <trkpt lat="47.98379" lon="6.9997">
        <ele>1193.91289984</ele>
        <time>2020-08-14T11:16:17.659Z</time>
      </trkpt>
      <trkpt lat="47.98353" lon="6.9982">
        <ele>1205</ele>
        <time>2020-08-14T11:18:17.776Z</time>
      </trkpt>
      <trkpt lat="47.9835" lon="6.9973">
        <ele>1210</ele>
        <time>2020-08-14T11:19:48.249Z</time>
      </trkpt>
      <trkpt lat="47.98354" lon="6.99715">
        <ele>1210.1704205823</ele>
        <time>2020-08-14T11:20:07.000Z</time>
      </trkpt>
      <trkpt lat="47.98354" lon="6.99668">
        <ele>1210.9015440329</ele>
        <time>2020-08-14T11:20:47.573Z</time>
      </trkpt>
      <trkpt lat="47.98332" lon="6.99627">
        <ele>1213</ele>
        <time>2020-08-14T11:22:47.608Z</time>
      </trkpt>
      <trkpt lat="47.98285" lon="6.99581">
        <ele>1208.1653398584</ele>
        <time>2020-08-14T11:23:47.127Z</time>
      </trkpt>
      <trkpt lat="47.98256" lon="6.99558">
        <ele>1207.91160064</ele>
        <time>2020-08-14T11:24:47.646Z</time>
      </trkpt>
      <trkpt lat="47.982" lon="6.99524">
        <ele>1207.1372992</ele>
        <time>2020-08-14T11:25:47.157Z</time>
      </trkpt>
      <trkpt lat="47.9817" lon="6.99431">
        <ele>1203.08550016</ele>
        <time>2020-08-14T11:26:47.675Z</time>
      </trkpt>
      <trkpt lat="47.98154" lon="6.99394">
        <ele>1201.1353596319</ele>
        <time>2020-08-14T11:27:47.194Z</time>
      </trkpt>
      <trkpt lat="47.98106" lon="6.99376">
        <ele>1199</ele>
        <time>2020-08-14T11:28:47.707Z</time>
      </trkpt>
      <trkpt lat="47.98095" lon="6.99322">
        <ele>1195.13129984</ele>
        <time>2020-08-14T11:29:47.217Z</time>
      </trkpt>
      <trkpt lat="47.98124" lon="6.99316">
        <ele>1194.0922990223</ele>
        <time>2020-08-14T11:30:47.725Z</time>
      </trkpt>
      <trkpt lat="47.98091" lon="6.99202">
        <ele>1177.9775754198</ele>
        <time>2020-08-14T11:32:48.741Z</time>
      </trkpt>
      <trkpt lat="47.98073" lon="6.99129">
        <ele>1168.0472</ele>
        <time>2020-08-14T11:33:48.058Z</time>
      </trkpt>
      <trkpt lat="47.98064" lon="6.99075">
        <ele>1155.0848</ele>
        <time>2020-08-14T11:34:47.682Z</time>
      </trkpt>
      <trkpt lat="47.98057" lon="6.99031">
        <ele>1146.0844992</ele>
        <time>2020-08-14T11:35:47.685Z</time>
      </trkpt>
      <trkpt lat="47.9803" lon="6.98999">
        <ele>1138.6</ele>
      </trkpt>
      <trkpt lat="47.97974" lon="6.98918">
        <ele>1152.4</ele>
      </trkpt>
      <trkpt lat="47.9797" lon="6.9886">
        <ele>1138.1</ele>
      </trkpt>
      <trkpt lat="47.98027" lon="6.98851">
        <ele>1130.3</ele>
      </trkpt>
      <trkpt lat="47.98072" lon="6.98869">
        <ele>1134.1304600436</ele>
        <time>2020-08-14T11:41:47.228Z</time>
      </trkpt>
      <trkpt lat="47.98147" lon="6.98824">
        <ele>1131.2296508527</ele>
        <time>2020-08-14T11:42:47.735Z</time>
      </trkpt>
      <trkpt lat="47.98164" lon="6.98786">
        <ele>1130.941608863</ele>
        <time>2020-08-14T11:43:47.949Z</time>
      </trkpt>
      <trkpt lat="47.98203" lon="6.98791">
        <ele>1103.3</ele>
      </trkpt>
      <trkpt lat="47.98233" lon="6.98724">
        <ele>1142.9347008</ele>
        <time>2020-08-14T11:45:47.877Z</time>
      </trkpt>
      <trkpt lat="47.98256" lon="6.9866">
        <ele>1149</ele>
        <time>2020-08-14T11:46:47.289Z</time>
      </trkpt>
      <trkpt lat="47.98291" lon="6.98637">
        <ele>1153</ele>
        <time>2020-08-14T11:47:47.696Z</time>
      </trkpt>
      <trkpt lat="47.98324" lon="6.98569">
        <ele>1158</ele>
        <time>2020-08-14T11:48:47.105Z</time>
      </trkpt>
      <trkpt lat="47.98354" lon="6.9858">
        <ele>1163</ele>
        <time>2020-08-14T11:49:47.612Z</time>
      </trkpt>
      <trkpt lat="47.98435" lon="6.98564">
        <ele>1161</ele>
        <time>2020-08-14T11:50:47.014Z</time>
      </trkpt>
      <trkpt lat="47.9851" lon="6.98546">
        <ele>1160.96950016</ele>
        <time>2020-08-14T11:51:48.225Z</time>
      </trkpt>
      <trkpt lat="47.98575" lon="6.98528">
        <ele>1163</ele>
        <time>2020-08-14T11:53:47.846Z</time>
      </trkpt>
      <trkpt lat="47.98616" lon="6.9851">
        <ele>1162</ele>
        <time>2020-08-14T11:54:47.267Z</time>
      </trkpt>
      <trkpt lat="47.98666" lon="6.98517">
        <ele>1163</ele>
        <time>2020-08-14T11:55:47.675Z</time>
      </trkpt>
      <trkpt lat="47.9873" lon="6.98507">
        <ele>1167</ele>
        <time>2020-08-14T11:56:47.083Z</time>
      </trkpt>
      <trkpt lat="47.98789" lon="6.98497">
        <ele>1169</ele>
        <time>2020-08-14T11:57:47.488Z</time>
      </trkpt>
      <trkpt lat="47.98833" lon="6.98498">
        <ele>1169.9292427457</ele>
        <time>2020-08-14T11:58:47.898Z</time>
      </trkpt>
      <trkpt lat="47.98899" lon="6.98501">
        <ele>1143</ele>
      </trkpt>
      <trkpt lat="47.98943" lon="6.9855">
        <ele>1139.5</ele>
      </trkpt>
      <trkpt lat="47.98996" lon="6.98565">
        <ele>1138.5</ele>
      </trkpt>
      <trkpt lat="47.99046" lon="6.98508">
        <ele>1165</ele>
        <time>2020-08-14T12:01:52.824Z</time>
      </trkpt>
      <trkpt lat="47.99118" lon="6.98457">
        <ele>1161.01910016</ele>
        <time>2020-08-14T12:03:48.339Z</time>
      </trkpt>
      <trkpt lat="47.99198" lon="6.98435">
        <ele>1167.84140032</ele>
        <time>2020-08-14T12:04:47.737Z</time>
      </trkpt>
      <trkpt lat="47.99269" lon="6.985">
        <ele>1168</ele>
        <time>2020-08-14T12:06:47.852Z</time>
      </trkpt>
      <trkpt lat="47.99334" lon="6.98566">
        <ele>1165.1168839021</ele>
        <time>2020-08-14T12:07:47.367Z</time>
      </trkpt>
      <trkpt lat="47.99367" lon="6.98579">
        <ele>1159.0648</ele>
        <time>2020-08-14T12:08:47.882Z</time>
      </trkpt>
      <trkpt lat="47.99402" lon="6.98606">
        <ele>1160</ele>
        <time>2020-08-14T12:12:47.228Z</time>
      </trkpt>
      <trkpt lat="47.99407" lon="6.98598">
        <ele>1159.1972931697</ele>
        <time>2020-08-14T12:13:47.736Z</time>
      </trkpt>
      <trkpt lat="47.99432" lon="6.98608">
        <ele>1171</ele>
        <time>2020-08-14T12:36:17.188Z</time>
      </trkpt>
      <trkpt lat="47.99486" lon="6.98656">
        <ele>1171</ele>
        <time>2020-08-14T12:39:17.713Z</time>
      </trkpt>
      <trkpt lat="47.99557" lon="6.98686">
        <ele>1170</ele>
        <time>2020-08-14T12:40:18.726Z</time>
      </trkpt>
      <trkpt lat="47.99628" lon="6.9873">
        <ele>1174</ele>
        <time>2020-08-14T12:41:18.937Z</time>
      </trkpt>
      <trkpt lat="47.99654" lon="6.98744">
        <ele>1174</ele>
        <time>2020-08-14T12:42:18.047Z</time>
      </trkpt>
      <trkpt lat="47.99697" lon="6.98779">
        <ele>1177</ele>
        <time>2020-08-14T12:43:17.649Z</time>
      </trkpt>
      <trkpt lat="47.99774" lon="6.98765">
        <ele>1173.2757814982</ele>
        <time>2020-08-14T12:44:19.353Z</time>
      </trkpt>
      <trkpt lat="47.99805" lon="6.98777">
        <ele>1173.13330048</ele>
        <time>2020-08-14T12:45:17.863Z</time>
      </trkpt>
      <trkpt lat="47.9985" lon="6.98695">
        <ele>1172.6752</ele>
        <time>2020-08-14T12:46:19.778Z</time>
      </trkpt>
      <trkpt lat="47.99885" lon="6.98599">
        <ele>1176.18000128</ele>
        <time>2020-08-14T12:50:17.430Z</time>
      </trkpt>
      <trkpt lat="47.99965" lon="6.98564">
        <ele>1183.2998015681</ele>
        <time>2020-08-14T12:51:19.543Z</time>
      </trkpt>
      <trkpt lat="47.99997" lon="6.98544">
        <ele>1189</ele>
        <time>2020-08-14T12:53:18.257Z</time>
      </trkpt>
      <trkpt lat="48.00141" lon="6.98411">
        <ele>1186.03709952</ele>
        <time>2020-08-14T12:54:26.159Z</time>
      </trkpt>
      <trkpt lat="48.00173" lon="6.98407">
        <ele>1189.2497516417</ele>
        <time>2020-08-14T12:57:17.785Z</time>
      </trkpt>
      <trkpt lat="48.00204" lon="6.98338">
        <ele>1196</ele>
        <time>2020-08-14T12:58:19.197Z</time>
      </trkpt>
      <trkpt lat="48.00209" lon="6.98296">
        <ele>1199.11699968</ele>
        <time>2020-08-14T12:59:17.700Z</time>
      </trkpt>
      <trkpt lat="48.00278" lon="6.98259">
        <ele>1200</ele>
        <time>2020-08-14T13:00:22.315Z</time>
      </trkpt>
      <trkpt lat="48.00338" lon="6.98204">
        <ele>1200</ele>
        <time>2020-08-14T13:02:19.836Z</time>
      </trkpt>
      <trkpt lat="48.00367" lon="6.98191">
        <ele>1213</ele>
        <time>2020-08-14T13:04:17.355Z</time>
      </trkpt>
      <trkpt lat="48.00418" lon="6.98173">
        <ele>1227</ele>
        <time>2020-08-14T13:06:18.370Z</time>
      </trkpt>
      <trkpt lat="48.00518" lon="6.98122">
        <ele>1231.6620293992</ele>
        <time>2020-08-14T13:07:23.382Z</time>
      </trkpt>
      <trkpt lat="48.0055" lon="6.9807">
        <ele>1232</ele>
        <time>2020-08-14T13:08:21.892Z</time>
      </trkpt>
      <trkpt lat="48.00576" lon="6.98019">
        <ele>1233.1374119598</ele>
        <time>2020-08-14T13:10:18.000Z</time>
      </trkpt>
      <trkpt lat="48.00556" lon="6.98042">
        <ele>1233.655655766</ele>
        <time>2020-08-14T13:10:40.000Z</time>
      </trkpt>
      <trkpt lat="48.00539" lon="6.98028">
        <ele>1233</ele>
        <time>2020-08-14T13:11:10.000Z</time>
      </trkpt>
      <trkpt lat="48.00544" lon="6.98017">
        <ele>1233</ele>
        <time>2020-08-14T13:11:42.000Z</time>
      </trkpt>
      <trkpt lat="48.00553" lon="6.97999">
        <ele>1236</ele>
        <time>2020-08-14T13:14:59.000Z</time>
      </trkpt>
      <trkpt lat="48.00626" lon="6.97954">
        <ele>1242</ele>
        <time>2020-08-14T13:16:17.480Z</time>
      </trkpt>
      <trkpt lat="48.00656" lon="6.97909">
        <ele>1247</ele>
        <time>2020-08-14T13:17:18.000Z</time>
      </trkpt>
      <trkpt lat="48.00704" lon="6.97863">
        <ele>1250</ele>
        <time>2020-08-14T13:18:17.515Z</time>
      </trkpt>
      <trkpt lat="48.00737" lon="6.97802">
        <ele>1253.0476618659</ele>
        <time>2020-08-14T13:19:17.029Z</time>
      </trkpt>
      <trkpt lat="48.00793" lon="6.9769">
        <ele>1260.10569984</ele>
        <time>2020-08-14T13:21:17.587Z</time>
      </trkpt>
      <trkpt lat="48.00825" lon="6.97642">
        <ele>1262</ele>
        <time>2020-08-14T13:22:17.103Z</time>
      </trkpt>
      <trkpt lat="48.0087" lon="6.97621">
        <ele>1267</ele>
        <time>2020-08-14T13:23:17.608Z</time>
      </trkpt>
      <trkpt lat="48.0093" lon="6.97641">
        <ele>1267</ele>
        <time>2020-08-14T13:24:17.128Z</time>
      </trkpt>
      <trkpt lat="48.00975" lon="6.97722">
        <ele>1268.11330048</ele>
        <time>2020-08-14T13:27:17.663Z</time>
      </trkpt>
      <trkpt lat="48.01008" lon="6.97824">
        <ele>1270.0643008</ele>
        <time>2020-08-14T13:28:17.173Z</time>
      </trkpt>
      <trkpt lat="48.01025" lon="6.97909">
        <ele>1271</ele>
        <time>2020-08-14T13:29:17.681Z</time>
      </trkpt>
      <trkpt lat="48.01082" lon="6.97974">
        <ele>1269</ele>
        <time>2020-08-14T13:32:17.211Z</time>
      </trkpt>
      <trkpt lat="48.01112" lon="6.98053">
        <ele>1264.8804992</ele>
        <time>2020-08-14T13:33:17.725Z</time>
      </trkpt>
      <trkpt lat="48.01152" lon="6.98113">
        <ele>1261.92919936</ele>
        <time>2020-08-14T13:34:17.238Z</time>
      </trkpt>
      <trkpt lat="48.01169" lon="6.98158">
        <ele>1255</ele>
        <time>2020-08-14T13:35:17.747Z</time>
      </trkpt>
      <trkpt lat="48.01187" lon="6.9824">
        <ele>1249</ele>
        <time>2020-08-14T13:36:17.260Z</time>
      </trkpt>
      <trkpt lat="48.01215" lon="6.98301">
        <ele>1245.73199872</ele>
        <time>2020-08-14T13:37:17.870Z</time>
      </trkpt>
      <trkpt lat="48.01264" lon="6.98391">
        <ele>1237.90550016</ele>
        <time>2020-08-14T13:38:17.475Z</time>
      </trkpt>
      <trkpt lat="48.0134" lon="6.98421">
        <ele>1205.1</ele>
      </trkpt>
      <trkpt lat="48.01402" lon="6.98505">
        <ele>1226.7836992</ele>
        <time>2020-08-14T13:40:18.693Z</time>
      </trkpt>
      <trkpt lat="48.01457" lon="6.98532">
        <ele>1222.9445623645</ele>
        <time>2020-08-14T13:41:17.101Z</time>
      </trkpt>
      <trkpt lat="48.0149" lon="6.98486">
        <ele>1212.95990016</ele>
        <time>2020-08-14T13:43:16.931Z</time>
      </trkpt>
      <trkpt lat="48.01456" lon="6.98461">
        <ele>1185.4</ele>
      </trkpt>
      <trkpt lat="48.01483" lon="6.98441">
        <ele>1202.9312377137</ele>
        <time>2020-08-14T13:44:17.341Z</time>
      </trkpt>
      <trkpt lat="48.0152" lon="6.98449">
        <ele>1168.4</ele>
      </trkpt>
      <trkpt lat="48.01515" lon="6.98424">
        <ele>1198.51199744</ele>
        <time>2020-08-14T13:45:17.750Z</time>
      </trkpt>
      <trkpt lat="48.01493" lon="6.98359">
        <ele>1167.9358842555</ele>
        <time>2020-08-14T13:48:17.175Z</time>
      </trkpt>
      <trkpt lat="48.01449" lon="6.98312">
        <ele>1147.3</ele>
      </trkpt>
      <trkpt lat="48.01431" lon="6.98269">
        <ele>1135.1</ele>
      </trkpt>
      <trkpt lat="48.01475" lon="6.98273">
        <ele>1150.72859904</ele>
        <time>2020-08-14T13:50:17.887Z</time>
      </trkpt>
      <trkpt lat="48.01456" lon="6.98246">
        <ele>1117.4</ele>
      </trkpt>
      <trkpt lat="48.01481" lon="6.98226">
        <ele>1111.9</ele>
      </trkpt>
      <trkpt lat="48.01494" lon="6.98254">
        <ele>1121.4</ele>
      </trkpt>
      <trkpt lat="48.01507" lon="6.98257">
        <ele>1115.5</ele>
      </trkpt>
      <trkpt lat="48.01513" lon="6.98253">
        <ele>1115.3</ele>
      </trkpt>
      <trkpt lat="48.01477" lon="6.98195">
        <ele>1127</ele>
        <time>2020-08-14T13:55:48.887Z</time>
      </trkpt>
      <trkpt lat="48.01397" lon="6.98146">
        <ele>1113.3</ele>
      </trkpt>
      <trkpt lat="48.01336" lon="6.97972">
        <ele>1112.60539904</ele>
        <time>2020-08-14T13:58:48.503Z</time>
      </trkpt>
      <trkpt lat="48.01298" lon="6.97936">
        <ele>1101.4</ele>
      </trkpt>
      <trkpt lat="48.01248" lon="6.97774">
        <ele>1101.2</ele>
      </trkpt>
      <trkpt lat="48.01277" lon="6.97677">
        <ele>1094.62719744</ele>
        <time>2020-08-14T14:02:17.462Z</time>
      </trkpt>
      <trkpt lat="48.01344" lon="6.97732">
        <ele>1083</ele>
        <time>2020-08-14T14:04:17.381Z</time>
      </trkpt>
      <trkpt lat="48.0137" lon="6.97826">
        <ele>1075.8766798419</ele>
        <time>2020-08-14T14:05:17.778Z</time>
      </trkpt>
      <trkpt lat="48.01375" lon="6.97867">
        <ele>1069.86739968</ele>
        <time>2020-08-14T14:06:17.193Z</time>
      </trkpt>
      <trkpt lat="48.01412" lon="6.97921">
        <ele>1062.78579968</ele>
        <time>2020-08-14T14:07:17.601Z</time>
      </trkpt>
      <trkpt lat="48.01455" lon="6.97918">
        <ele>1045.9016</ele>
        <time>2020-08-14T14:09:17.514Z</time>
      </trkpt>
      <trkpt lat="48.01526" lon="6.97955">
        <ele>1042</ele>
        <time>2020-08-14T14:10:17.424Z</time>
      </trkpt>
      <trkpt lat="48.01567" lon="6.9798">
        <ele>1040.65299968</ele>
        <time>2020-08-14T14:10:50.000Z</time>
      </trkpt>
      <trkpt lat="48.01609" lon="6.9797">
        <ele>1030.8842371084</ele>
        <time>2020-08-14T14:12:47.723Z</time>
      </trkpt>
      <trkpt lat="48.01644" lon="6.97944">
        <ele>1025.92870016</ele>
        <time>2020-08-14T14:13:47.243Z</time>
      </trkpt>
      <trkpt lat="48.01694" lon="6.97923">
        <ele>1023</ele>
        <time>2020-08-14T14:14:48.558Z</time>
      </trkpt>
      <trkpt lat="48.01761" lon="6.97922">
        <ele>1022.89549952</ele>
        <time>2020-08-14T14:15:47.575Z</time>
      </trkpt>
      <trkpt lat="48.01785" lon="6.97897">
        <ele>1024</ele>
        <time>2020-08-14T14:18:47.895Z</time>
      </trkpt>
      <trkpt lat="48.01815" lon="6.97835">
        <ele>988.29998779297</ele>
        <time>2020-08-14T14:19:47.306Z</time>
      </trkpt>
    </trkseg>
  </trk>
</gpx>